BA2667 / G-MIDS 7700 Squawk Report (25th of January, 2020)

Aircraft A320 Reg No. G-MIDS Age 19 years old
Model A320 Jet engines 2 First flight 06-02-01
Registered 03-09-12 Rollout 01-01 Delivered 21-03-01
Construction No. 1424 Line No. N/A Series 232
ADSHEX 4008E6 Airline name British Airways Owner Aercap Holdings N.V.
Airfield based Heathrow~Gtr London~G First tracked 2017-07-13 05:40:00

Flight history for G-MIDS

Route Flight No Date Playback
Gatwick (LGW) - Capodichino (NAP) BA2612 2020-02-17 15:27:00
Bilbao (BIO) - Gatwick (LGW) BA2685 2020-02-17 14:33:00
Gatwick (LGW) - Bilbao (BIO) BA2684 2020-02-17 11:47:00
Edinburgh (EDI) - Gatwick (LGW) BA2931 2020-02-17 07:40:00
Gatwick (LGW) - Edinburgh (EDI) BA2946 2020-02-16 23:02:00
Koln Bonn (CGN) - Gatwick (LGW) BA2565 2020-02-16 21:42:00
Gatwick (LGW) - Koln Bonn (CGN) BA2564 2020-02-16 19:23:00
Merignac (BOD) - Gatwick (LGW) BA2789 2020-02-16 15:45:00
Gatwick (LGW) - Merignac (BOD) BA2788 2020-02-16 13:15:00
Schiphol (AMS) - Gatwick (LGW) BA2759 2020-02-15 13:10:00
Gatwick (LGW) - Schiphol (AMS) BA2758 2020-02-15 09:02:00
Fiumicino (FCO) - Gatwick (LGW) BA2541 2020-02-14 18:00:00
Gatwick (LGW) - Fiumicino (FCO) BA2540 2020-02-14 15:32:00
Alicante (ALC) - Gatwick (LGW) BA2633 2020-02-14 11:56:00
Gatwick (LGW) - Alicante (ALC) BA2632 2020-02-13 17:41:00
???? N/A 2020-02-08 15:22:00
Fiumicino (FCO) - Gatwick (LGW) BA2541 2020-02-04 18:03:00
Gatwick (LGW) - Fiumicino (FCO) BA2540 2020-02-04 15:25:00
Tenerife Sur (TFS) - Gatwick (LGW) BA2703 2020-02-03 18:43:00
Gatwick (LGW) - Tenerife Sur (TFS) BA2702 2020-02-03 15:11:00
Time Lat Lon Altitude Heading Speed Vertical Rate
2020-01-25 18:37:46 GMT 31.611624 -8.090277 1,925 94 159 -768
2020-01-25 18:37:41 GMT 31.611996 -8.095386 2,000 94 159 -768
2020-01-25 18:37:25 GMT 31.613022 -8.108556 2,200 96 160 -768
2020-01-25 18:37:02 GMT 31.614742 -8.128400 2,525 95 156 -768
2020-01-25 18:36:58 GMT 31.615036 -8.132468 2,575 95 155 -768
2020-01-25 18:36:49 GMT 31.615673 -8.139716 2,700 96 156 -896
2020-01-25 18:36:38 GMT 31.616556 -8.149054 2,875 96 158 -1024
2020-01-25 18:36:29 GMT 31.617371 -8.156918 3,025 96 162 -1088
2020-01-25 18:36:19 GMT 31.618139 -8.165698 3,225 96 162 -896
2020-01-25 18:36:08 GMT 31.619110 -8.175551 3,375 95 165 -704
2020-01-25 18:35:58 GMT 31.619797 -8.184007 3,500 95 163 -704
2020-01-25 18:35:47 GMT 31.620621 -8.193485 3,625 95 161 -704
2020-01-25 18:35:37 GMT 31.621305 -8.202063 3,775 95 159 -832
2020-01-25 18:35:27 GMT 31.622051 -8.210962 3,925 95 158 -768
2020-01-25 18:35:17 GMT 31.622795 -8.219641 4,075 96 161 -960
2020-01-25 18:35:06 GMT 31.623688 -8.229137 4,250 96 160 -1024
2020-01-25 18:34:55 GMT 31.624426 -8.238373 4,425 96 161 -896
2020-01-25 18:34:47 GMT 31.625153 -8.246209 4,575 95 163 -896
2020-01-25 18:34:36 GMT 31.626068 -8.255741 4,750 96 164 -960
2020-01-25 18:34:25 GMT 31.626846 -8.264788 4,925 96 164 -1088
2020-01-25 18:34:15 GMT 31.627684 -8.274243 5,125 94 163 -896
2020-01-25 18:34:06 GMT 31.628357 -8.282722 5,250 94 161 -832
2020-01-25 18:33:55 GMT 31.628941 -8.291876 5,400 95 161 -768
2020-01-25 18:33:45 GMT 31.629684 -8.300063 5,525 94 162 -768
2020-01-25 18:33:35 GMT 31.630430 -8.309235 5,675 96 161 -704
2020-01-25 18:33:18 GMT 31.631735 -8.323352 5,800 96 160 -256
2020-01-25 18:33:14 GMT 31.632059 -8.327637 5,850 96 159 -192
2020-01-25 18:33:04 GMT 31.632990 -8.336151 5,850 95 159 0
2020-01-25 18:32:54 GMT 31.633530 -8.345032 5,850 95 160 0
2020-01-25 18:32:43 GMT 31.634295 -8.354224 5,850 95 162 0
2020-01-25 18:32:33 GMT 31.634995 -8.362534 5,850 95 163 0
2020-01-25 18:32:23 GMT 31.635773 -8.371636 5,850 95 164 0
2020-01-25 18:32:11 GMT 31.636642 -8.381653 5,850 96 164 0
2020-01-25 18:32:03 GMT 31.637466 -8.389731 5,850 96 167 0
2020-01-25 18:31:52 GMT 31.638382 -8.399156 5,850 96 170 -64
2020-01-25 18:31:43 GMT 31.639297 -8.408580 5,850 97 173 64
2020-01-25 18:31:32 GMT 31.640347 -8.418219 5,825 96 182 256
2020-01-25 18:31:21 GMT 31.641323 -8.429150 5,825 96 192 0
2020-01-25 18:31:11 GMT 31.642456 -8.439762 5,825 96 202 0
2020-01-25 18:31:02 GMT 31.643511 -8.450574 5,850 96 210 0
2020-01-25 18:30:51 GMT 31.644791 -8.462650 5,850 97 218 0
2020-01-25 18:30:41 GMT 31.646166 -8.475018 5,875 96 228 0
2020-01-25 18:30:30 GMT 31.647375 -8.487708 5,875 96 237 -64
2020-01-25 18:30:20 GMT 31.648636 -8.500833 5,875 96 243 0
2020-01-25 18:30:11 GMT 31.649918 -8.514135 5,875 98 243 0
2020-01-25 18:30:00 GMT 31.651886 -8.527006 5,875 101 244 128
2020-01-25 18:29:50 GMT 31.654310 -8.540552 5,850 102 248 -128
2020-01-25 18:29:39 GMT 31.656872 -8.554340 5,875 102 248 -64
2020-01-25 18:29:29 GMT 31.659164 -8.567613 5,900 99 245 -64
2020-01-25 18:29:18 GMT 31.659945 -8.582135 5,900 84 242 192
2020-01-25 18:29:08 GMT 31.656921 -8.594432 5,875 61 242 0
2020-01-25 18:28:59 GMT 31.650101 -8.604557 5,900 39 239 -128
2020-01-25 18:28:49 GMT 31.640764 -8.611084 5,900 19 238 64
2020-01-25 18:28:39 GMT 31.628754 -8.613995 5,900 2 239 0
2020-01-25 18:28:28 GMT 31.617954 -8.612842 5,900 347 239 64
2020-01-25 18:28:17 GMT 31.606659 -8.607627 5,875 329 237 128
2020-01-25 18:28:08 GMT 31.598740 -8.600787 5,850 316 234 64
2020-01-25 18:27:57 GMT 31.591415 -8.590178 5,850 301 232 0
2020-01-25 18:27:47 GMT 31.587387 -8.579137 5,850 285 228 0
2020-01-25 18:27:36 GMT 31.584869 -8.565943 5,850 281 228 -64
2020-01-25 18:27:27 GMT 31.583771 -8.553934 5,875 273 229 -64
2020-01-25 18:27:17 GMT 31.583738 -8.541486 5,875 266 227 0
2020-01-25 18:27:07 GMT 31.584915 -8.528622 5,875 264 227 128
2020-01-25 18:26:56 GMT 31.585926 -8.516382 5,850 266 227 64
2020-01-25 18:26:46 GMT 31.586485 -8.503418 5,850 270 227 0
2020-01-25 18:26:34 GMT 31.585785 -8.489039 5,850 278 226 -192
2020-01-25 18:26:26 GMT 31.584204 -8.478809 5,875 283 226 -64
2020-01-25 18:26:15 GMT 31.582306 -8.466043 5,900 270 226 64
2020-01-25 18:26:05 GMT 31.584274 -8.454195 5,875 248 228 0
2020-01-25 18:25:53 GMT 31.591370 -8.442455 5,900 221 231 -192
2020-01-25 18:25:44 GMT 31.600250 -8.437069 5,925 197 235 64
2020-01-25 18:25:34 GMT 31.611856 -8.435687 5,900 170 242 -64
2020-01-25 18:25:23 GMT 31.622702 -8.440027 5,925 150 246 -64
2020-01-25 18:25:13 GMT 31.631699 -8.447894 5,950 134 248 -192
2020-01-25 18:25:04 GMT 31.639343 -8.459203 5,975 119 249 -64
2020-01-25 18:24:53 GMT 31.644115 -8.471503 6,000 106 249 64
2020-01-25 18:24:43 GMT 31.646667 -8.484838 5,975 98 250 -192
2020-01-25 18:24:33 GMT 31.648399 -8.498254 5,950 98 251 256
2020-01-25 18:24:23 GMT 31.650284 -8.512627 5,925 99 252 320
2020-01-25 18:24:12 GMT 31.652298 -8.526198 5,850 99 254 320
2020-01-25 18:24:02 GMT 31.654032 -8.540057 5,825 98 255 0
2020-01-25 18:23:52 GMT 31.655869 -8.553934 5,825 97 257 0
2020-01-25 18:23:40 GMT 31.657425 -8.569874 5,825 93 258 64
2020-01-25 18:23:31 GMT 31.655802 -8.584167 5,825 70 260 0
2020-01-25 18:23:20 GMT 31.650494 -8.595923 5,825 52 257 0
2020-01-25 18:23:11 GMT 31.642160 -8.604822 5,850 32 251 0
2020-01-25 18:23:00 GMT 31.630737 -8.610858 5,825 14 244 0
2020-01-25 18:22:48 GMT 31.617395 -8.612402 5,825 357 234 64
2020-01-25 18:22:40 GMT 31.609388 -8.610590 5,800 338 227 64
2020-01-25 18:22:28 GMT 31.599060 -8.602726 5,775 312 223 128
2020-01-25 18:22:19 GMT 31.594025 -8.592978 5,775 290 225 0
2020-01-25 18:22:09 GMT 31.591919 -8.581238 5,750 279 226 0
2020-01-25 18:22:00 GMT 31.590534 -8.569336 5,775 278 226 0
2020-01-25 18:21:49 GMT 31.588812 -8.556592 5,775 279 227 0
2020-01-25 18:21:38 GMT 31.587416 -8.542969 5,775 278 228 0
2020-01-25 18:21:28 GMT 31.586159 -8.531653 5,775 278 228 0
2020-01-25 18:21:19 GMT 31.584623 -8.519348 5,775 278 228 -128
2020-01-25 18:21:03 GMT 31.582901 -8.500725 5,825 275 226 -192
2020-01-25 18:20:58 GMT 31.582436 -8.493805 5,850 272 225 -64
2020-01-25 18:20:47 GMT 31.583771 -8.481607 5,850 250 225 -64
2020-01-25 18:20:37 GMT 31.589277 -8.470569 5,875 226 226 0
2020-01-25 18:20:28 GMT 31.597137 -8.463296 5,850 207 229 0
2020-01-25 18:20:16 GMT 31.608551 -8.459363 5,875 184 234 0
2020-01-25 18:20:07 GMT 31.619259 -8.460571 5,850 164 240 0
2020-01-25 18:19:57 GMT 31.629822 -8.466043 5,850 145 245 0
2020-01-25 18:19:46 GMT 31.638065 -8.475018 5,850 126 248 0
2020-01-25 18:19:36 GMT 31.643829 -8.487208 5,850 109 250 64
2020-01-25 18:19:24 GMT 31.646351 -8.502869 5,850 97 252 0
2020-01-25 18:19:16 GMT 31.647654 -8.514294 5,850 97 251 0
2020-01-25 18:19:05 GMT 31.649424 -8.529401 5,850 97 248 64
2020-01-25 18:18:54 GMT 31.650879 -8.543809 5,825 98 249 64
2020-01-25 18:18:44 GMT 31.652527 -8.557003 5,825 98 250 64
2020-01-25 18:18:32 GMT 31.654358 -8.572460 5,825 96 251 -128
2020-01-25 18:18:24 GMT 31.654497 -8.585651 5,875 83 252 -128
2020-01-25 18:18:12 GMT 31.651146 -8.600043 5,900 67 250 64
2020-01-25 18:18:02 GMT 31.644722 -8.611414 5,850 46 248 128
2020-01-25 18:17:53 GMT 31.636688 -8.618882 5,850 27 243 0
2020-01-25 18:17:42 GMT 31.626055 -8.623993 5,850 19 239 -64
2020-01-25 18:17:32 GMT 31.615208 -8.627289 5,850 3 235 -64
2020-01-25 18:17:22 GMT 31.603476 -8.625696 5,850 341 232 128
2020-01-25 18:17:11 GMT 31.594162 -8.619959 5,825 321 230 64
2020-01-25 18:17:01 GMT 31.586792 -8.610265 5,825 300 231 0
2020-01-25 18:16:52 GMT 31.583267 -8.598148 5,825 279 232 0
2020-01-25 18:16:41 GMT 31.583267 -8.585869 5,825 259 232 128
2020-01-25 18:16:30 GMT 31.587835 -8.573071 5,800 236 232 0
2020-01-25 18:16:21 GMT 31.594166 -8.564008 5,800 228 232 64
2020-01-25 18:16:09 GMT 31.602402 -8.553449 5,775 228 233 0
2020-01-25 18:16:01 GMT 31.609451 -8.544671 5,775 226 235 0
2020-01-25 18:15:50 GMT 31.617069 -8.535663 5,775 226 236 0
2020-01-25 18:15:39 GMT 31.625216 -8.525830 5,775 225 236 0
2020-01-25 18:15:30 GMT 31.632660 -8.517205 5,775 226 234 192
2020-01-25 18:15:20 GMT 31.639833 -8.507098 5,750 238 230 64
2020-01-25 18:15:09 GMT 31.644722 -8.495782 5,725 252 226 128
2020-01-25 18:14:59 GMT 31.647003 -8.483478 5,700 267 223 0
2020-01-25 18:14:49 GMT 31.646667 -8.471213 5,700 278 225 0
2020-01-25 18:14:38 GMT 31.645187 -8.458923 5,725 278 227 0
2020-01-25 18:14:29 GMT 31.643650 -8.445740 5,725 278 225 0
2020-01-25 18:14:17 GMT 31.642160 -8.433270 5,725 279 222 0
2020-01-25 18:14:08 GMT 31.640673 -8.421844 5,725 279 222 64
2020-01-25 18:13:58 GMT 31.639042 -8.409595 5,700 279 224 128
2020-01-25 18:13:47 GMT 31.637365 -8.397400 5,700 280 226 0
2020-01-25 18:13:37 GMT 31.635590 -8.384776 5,700 280 226 0
2020-01-25 18:13:26 GMT 31.633736 -8.372296 5,725 280 226 -64
2020-01-25 18:13:16 GMT 31.631872 -8.359058 5,725 280 225 -128
2020-01-25 18:13:07 GMT 31.630243 -8.347247 5,750 279 225 -128
2020-01-25 18:12:56 GMT 31.628847 -8.334943 5,800 278 225 -128
2020-01-25 18:12:46 GMT 31.627451 -8.322583 5,800 277 225 -128
2020-01-25 18:12:36 GMT 31.626287 -8.310718 5,825 275 224 -128
2020-01-25 18:12:26 GMT 31.625496 -8.297809 5,850 275 224 -64
2020-01-25 18:12:15 GMT 31.624695 -8.285576 5,875 275 224 -256
2020-01-25 18:12:05 GMT 31.623779 -8.273190 5,900 275 225 64
2020-01-25 18:11:54 GMT 31.622843 -8.259796 5,900 276 226 0
2020-01-25 18:11:44 GMT 31.621948 -8.248147 5,925 277 227 -448
2020-01-25 18:11:35 GMT 31.620468 -8.235077 5,950 277 226 64
2020-01-25 18:11:24 GMT 31.619476 -8.222997 5,950 277 225 576
2020-01-25 18:11:13 GMT 31.618233 -8.210248 5,750 277 230 1600
2020-01-25 18:11:04 GMT 31.617279 -8.198386 5,475 275 225 1664
2020-01-25 18:10:54 GMT 31.616325 -8.185803 5,150 275 225 1536
2020-01-25 18:10:43 GMT 31.615723 -8.172805 4,900 274 219 1792
2020-01-25 18:10:33 GMT 31.615036 -8.161172 4,550 273 219 1664
2020-01-25 18:10:12 GMT 31.614090 -8.137244 4,275 274 195 1024
2020-01-25 18:10:03 GMT 31.613579 -8.126697 4,025 274 189 1600
2020-01-25 18:09:52 GMT 31.613022 -8.116742 3,775 275 185 1536

Making use of Plane Finder data

You are free to use the raw flight data, aircraft information and images provided in this report for your own purposes provided the data is correctly attributed to Plane Finder. We ask that you please credit Plane Finder and link to planefinder.net in close proximity to the content.

Optionally one of the following logos (no smaller then 150x24px) can be used and must link to planefinder.net

Embedding the Plane Finder map

You are welcome to embed the Plane Finder playback map on your website to offer visitors a more interactive experience. We suggest using the following HTML code:

<iframe src="//planefinder.net/data/report/BA2667-G-MIDS-7700-squawk-2020-01-25/map" width="800" height="600" seamless="seamless"></iframe>

Where our data comes from

Plane Finder has a global network of data feeds and antenna radars that receive data broadcast directly from aircraft. The primary technologies used are ADS-B and MLAT. We also show feeds from the FAA and a FLARM glider feed.

Click here to find out more about the Plane Finder network.

How we collect our data